createdAt,value
2019-05-22T00:00:48.791Z,13.31
2019-05-22T00:03:21.193Z,13.30
2019-05-22T00:05:50.129Z,13.20
2019-05-22T00:08:18.914Z,13.21
2019-05-22T00:10:49.366Z,13.26
2019-05-22T00:13:20.470Z,13.17
2019-05-22T00:15:50.497Z,13.22
2019-05-22T00:18:19.168Z,13.16
2019-05-22T00:20:49.137Z,13.16
2019-05-22T00:23:18.133Z,13.18
2019-05-22T00:25:46.853Z,13.20
2019-05-22T00:28:15.031Z,13.16
2019-05-22T00:30:44.750Z,13.22
2019-05-22T00:33:13.868Z,13.24
2019-05-22T00:35:44.459Z,13.17
2019-05-22T00:38:13.400Z,13.05
2019-05-22T00:40:47.683Z,13.09
2019-05-22T00:43:18.073Z,13.18
2019-05-22T00:45:49.114Z,13.05
2019-05-22T00:48:20.918Z,13.00
2019-05-22T00:51:00.306Z,12.99
2019-05-22T00:53:44.648Z,12.98
2019-05-22T00:56:50.347Z,13.02
2019-05-22T00:59:21.323Z,12.92
2019-05-22T01:01:53.222Z,12.89
2019-05-22T01:04:27.881Z,12.89
2019-05-22T01:06:58.155Z,12.89
2019-05-22T01:09:38.738Z,12.90
2019-05-22T01:12:16.598Z,12.91
2019-05-22T01:14:45.805Z,12.90
2019-05-22T01:17:15.282Z,12.85
2019-05-22T01:19:46.849Z,12.75
2019-05-22T01:22:20.326Z,12.67
2019-05-22T01:24:56.624Z,12.71
2019-05-22T01:27:26.408Z,12.72
2019-05-22T01:29:56.682Z,12.71
2019-05-22T01:32:33.382Z,12.78
2019-05-22T01:35:01.485Z,12.84
2019-05-22T01:37:30.510Z,12.82
2019-05-22T01:40:07.602Z,12.84
2019-05-22T01:42:50.320Z,12.82
2019-05-22T01:45:20.564Z,12.79
2019-05-22T01:47:57.600Z,12.85
2019-05-22T01:50:43.493Z,12.76
2019-05-22T01:53:15.516Z,12.67
2019-05-22T01:55:47.504Z,12.63
2019-05-22T01:58:18.168Z,12.55
2019-05-22T02:00:47.391Z,12.57
2019-05-22T02:03:17.571Z,12.62
2019-05-22T02:05:47.451Z,12.60
2019-05-22T02:08:17.600Z,12.59
2019-05-22T02:10:46.937Z,12.63
2019-05-22T02:13:21.095Z,12.63
2019-05-22T02:15:49.386Z,12.67
2019-05-22T02:18:18.886Z,12.73
2019-05-22T02:20:47.701Z,12.76
2019-05-22T02:23:17.278Z,12.71
2019-05-22T02:25:45.146Z,12.70
2019-05-22T02:28:14.522Z,12.57
2019-05-22T02:30:45.828Z,12.59
2019-05-22T02:33:18.093Z,12.58
2019-05-22T02:35:47.035Z,12.56
2019-05-22T02:38:16.455Z,12.45
2019-05-22T02:40:46.381Z,12.47
2019-05-22T02:43:15.716Z,12.57
2019-05-22T02:45:44.716Z,12.43
2019-05-22T02:48:15.138Z,12.44
2019-05-22T02:50:46.369Z,12.35
2019-05-22T02:53:15.790Z,12.47
2019-05-22T02:55:44.295Z,12.55
2019-05-22T02:58:12.723Z,12.55
2019-05-22T03:00:56.679Z,12.43
2019-05-22T03:03:26.460Z,12.31
2019-05-22T03:05:54.670Z,12.19
2019-05-22T03:08:22.853Z,12.34
2019-05-22T03:10:51.208Z,12.38
2019-05-22T03:13:21.096Z,12.38
2019-05-22T03:15:51.363Z,12.28
2019-05-22T03:18:21.046Z,12.23
2019-05-22T03:20:49.401Z,12.24
2019-05-22T03:23:37.527Z,12.28
2019-05-22T03:26:07.988Z,12.24
2019-05-22T03:28:37.242Z,12.26
2019-05-22T03:31:06.172Z,12.26
2019-05-22T03:33:35.406Z,12.24
2019-05-22T03:36:09.388Z,12.07
2019-05-22T03:38:38.674Z,12.30
2019-05-22T03:41:08.943Z,12.26
2019-05-22T03:43:37.128Z,12.20
2019-05-22T03:46:20.587Z,12.24
2019-05-22T03:48:49.730Z,12.17
2019-05-22T03:51:18.446Z,12.10
2019-05-22T03:53:47.213Z,12.13
2019-05-22T03:56:17.340Z,12.20
2019-05-22T03:58:46.614Z,12.09
2019-05-22T04:01:17.182Z,12.11
2019-05-22T04:03:46.327Z,12.10
2019-05-22T04:06:15.801Z,12.16
2019-05-22T04:08:44.979Z,12.13
2019-05-22T04:11:14.502Z,12.18
2019-05-22T04:13:43.934Z,12.26
2019-05-22T04:16:15.805Z,12.35
2019-05-22T04:18:44.825Z,12.11
2019-05-22T04:21:13.827Z,12.20
2019-05-22T04:23:42.632Z,12.26
2019-05-22T04:26:12.477Z,12.22
2019-05-22T04:28:49.570Z,12.17
2019-05-22T04:31:22.038Z,12.19
2019-05-22T04:33:50.383Z,12.32
2019-05-22T04:36:21.209Z,12.29
2019-05-22T04:38:50.426Z,12.30
2019-05-22T04:41:19.122Z,12.37
2019-05-22T04:43:47.814Z,12.25
2019-05-22T04:46:16.347Z,12.20
2019-05-22T04:48:46.371Z,12.14
2019-05-22T04:51:33.891Z,12.12
2019-05-22T04:54:02.673Z,12.04
2019-05-22T04:56:31.270Z,12.10
2019-05-22T04:59:01.574Z,12.00
2019-05-22T05:01:30.735Z,12.00
2019-05-22T05:04:00.108Z,11.99
2019-05-22T05:06:29.705Z,12.08
2019-05-22T05:08:58.012Z,12.06
2019-05-22T05:11:27.298Z,12.05
2019-05-22T05:13:56.381Z,12.04
2019-05-22T05:16:24.909Z,11.98
2019-05-22T05:18:53.336Z,11.89
2019-05-22T05:21:21.564Z,11.88
2019-05-22T05:23:49.868Z,11.80
2019-05-22T05:26:18.601Z,11.86
2019-05-22T05:28:46.773Z,11.89
2019-05-22T05:31:15.432Z,11.75
2019-05-22T05:33:57.212Z,11.69
2019-05-22T05:36:26.198Z,11.74
2019-05-22T05:38:54.817Z,11.81
2019-05-22T05:41:23.286Z,11.92
2019-05-22T05:43:51.755Z,11.67
2019-05-22T05:46:20.586Z,11.65
2019-05-22T05:48:48.985Z,11.56
2019-05-22T05:55:12.279Z,11.48
2019-05-22T05:58:28.229Z,11.27
2019-05-22T06:01:02.652Z,11.33
2019-05-22T06:03:34.423Z,11.33
2019-05-22T06:06:12.061Z,11.29
2019-05-22T06:08:41.906Z,11.37
2019-05-22T06:11:42.504Z,11.44
2019-05-22T06:14:19.159Z,11.36
2019-05-22T06:17:38.110Z,11.42
2019-05-22T06:20:09.425Z,11.41
2019-05-22T06:22:38.495Z,11.41
2019-05-22T06:25:07.798Z,11.33
2019-05-22T06:27:49.851Z,11.42
2019-05-22T06:30:39.698Z,11.38
2019-05-22T06:33:35.742Z,11.34
2019-05-22T06:36:07.019Z,11.41
2019-05-22T06:38:57.100Z,11.34
2019-05-22T06:41:45.430Z,11.37
2019-05-22T06:44:40.578Z,11.24
2019-05-22T06:47:13.755Z,11.37
2019-05-22T06:49:44.021Z,11.52
2019-05-22T06:52:12.566Z,11.56
2019-05-22T06:54:40.994Z,11.59
2019-05-22T06:57:13.427Z,11.71
2019-05-22T06:59:43.221Z,11.48
2019-05-22T07:02:13.475Z,11.37
2019-05-22T07:04:42.170Z,11.37
2019-05-22T07:07:12.270Z,11.42
2019-05-22T07:09:41.536Z,11.53
2019-05-22T07:12:12.698Z,11.52
2019-05-22T07:15:25.187Z,11.58
2019-05-22T07:17:55.514Z,11.60
2019-05-22T07:20:27.307Z,11.54
2019-05-22T07:22:57.551Z,11.60
2019-05-22T07:25:27.867Z,11.56
2019-05-22T07:27:57.379Z,11.40
2019-05-22T07:30:26.308Z,11.32
2019-05-22T07:32:55.843Z,11.34
2019-05-22T07:35:43.782Z,11.20
2019-05-22T07:37:56.478Z,11.26
2019-05-22T07:40:24.956Z,11.35
2019-05-22T07:42:53.724Z,11.39
2019-05-22T07:45:23.827Z,11.35
2019-05-22T07:47:53.603Z,11.25
2019-05-22T07:50:22.853Z,11.22
2019-05-22T07:52:51.659Z,11.27
2019-05-22T07:55:22.173Z,11.26
2019-05-22T07:57:55.189Z,11.24
2019-05-22T08:00:24.016Z,11.27
2019-05-22T08:02:52.423Z,11.19
2019-05-22T08:05:22.947Z,11.21
2019-05-22T08:07:51.589Z,11.19
2019-05-22T08:10:21.642Z,11.16
2019-05-22T08:12:51.364Z,11.23
2019-05-22T08:15:20.896Z,11.16
2019-05-22T08:17:48.932Z,11.47
2019-05-22T08:20:17.059Z,11.89
2019-05-22T08:22:46.505Z,12.09
2019-05-22T08:25:14.455Z,12.05
2019-05-22T08:27:43.163Z,12.01
2019-05-22T08:30:11.721Z,12.05
2019-05-22T08:32:40.314Z,11.95
2019-05-22T08:35:10.078Z,11.93
2019-05-22T08:37:40.566Z,11.76
2019-05-22T08:40:11.148Z,11.75
2019-05-22T08:42:40.661Z,11.57
2019-05-22T08:45:09.833Z,11.62
2019-05-22T08:47:39.921Z,11.66
2019-05-22T08:50:10.467Z,11.73
2019-05-22T08:52:40.386Z,12.04
2019-05-22T08:55:10.568Z,12.20
2019-05-22T08:57:40.240Z,12.29
2019-05-22T09:00:12.352Z,12.43
2019-05-22T09:02:40.310Z,12.65
2019-05-22T09:05:09.569Z,12.64
2019-05-22T09:07:39.661Z,12.69
2019-05-22T09:10:10.898Z,12.67
2019-05-22T09:12:39.434Z,12.63
2019-05-22T09:15:07.872Z,12.53
2019-05-22T09:17:36.337Z,12.46
2019-05-22T09:20:04.916Z,12.69
2019-05-22T09:22:40.570Z,13.09
2019-05-22T09:25:04.773Z,13.42
2019-05-22T09:27:33.122Z,13.59
2019-05-22T09:30:01.071Z,13.54
2019-05-22T09:32:28.857Z,13.62
2019-05-22T09:34:56.826Z,13.64
2019-05-22T09:37:25.119Z,13.91
2019-05-22T09:39:53.597Z,14.18
2019-05-22T09:42:22.147Z,13.99
2019-05-22T09:44:50.546Z,13.73
2019-05-22T09:47:23.005Z,13.62
2019-05-22T09:49:51.856Z,13.60
2019-05-22T09:52:20.625Z,13.63
2019-05-22T09:54:49.155Z,13.64
2019-05-22T09:57:17.809Z,13.52
2019-05-22T09:59:46.222Z,13.33
2019-05-22T10:02:14.835Z,12.95
2019-05-22T10:04:43.615Z,13.17
2019-05-22T10:07:12.187Z,13.36
2019-05-22T10:09:40.353Z,13.53
2019-05-22T10:12:09.600Z,13.88
2019-05-22T10:14:39.598Z,13.89
2019-05-22T10:17:08.347Z,14.13
2019-05-22T10:19:37.118Z,14.21
2019-05-22T10:22:05.230Z,14.71
2019-05-22T10:24:33.423Z,14.26
2019-05-22T10:27:04.319Z,13.84
2019-05-22T10:29:34.306Z,13.69
2019-05-22T10:32:04.253Z,13.46
2019-05-22T10:34:32.284Z,13.33
2019-05-22T10:37:00.238Z,13.16
2019-05-22T10:39:28.755Z,13.15
2019-05-22T10:41:57.713Z,13.12
2019-05-22T10:44:25.565Z,13.13
2019-05-22T10:46:53.658Z,13.20
2019-05-22T10:49:22.123Z,13.47
2019-05-22T10:51:49.891Z,13.73
2019-05-22T10:54:17.937Z,13.88
2019-05-22T10:56:46.268Z,13.88
2019-05-22T10:59:14.728Z,13.69
2019-05-22T11:01:43.169Z,13.61
2019-05-22T11:04:11.450Z,13.77
2019-05-22T11:06:39.334Z,13.91
2019-05-22T11:09:09.343Z,14.10
2019-05-22T11:11:37.707Z,14.40
2019-05-22T11:14:09.508Z,14.85
2019-05-22T11:16:36.147Z,15.10
2019-05-22T11:19:04.295Z,15.42
2019-05-22T11:21:32.458Z,15.67
2019-05-22T11:24:00.834Z,15.40
2019-05-22T11:26:29.024Z,15.31
2019-05-22T11:29:00.039Z,14.91
2019-05-22T11:31:28.080Z,15.02
2019-05-22T11:33:55.752Z,15.02
2019-05-22T11:36:24.333Z,14.91
2019-05-22T11:38:52.938Z,14.75
2019-05-22T11:41:22.041Z,14.88
2019-05-22T11:43:51.359Z,15.37
2019-05-22T11:46:20.478Z,15.33
2019-05-22T11:48:49.402Z,15.63
2019-05-22T11:51:20.026Z,15.78
2019-05-22T11:53:48.415Z,15.78
2019-05-22T11:56:16.619Z,16.15
2019-05-22T11:58:44.958Z,16.09
2019-05-22T12:01:13.688Z,16.10
2019-05-22T12:03:42.610Z,15.90
2019-05-22T12:06:11.426Z,16.41
2019-05-22T12:08:40.466Z,16.28
2019-05-22T12:11:09.213Z,16.58
2019-05-22T12:13:37.824Z,16.88
2019-05-22T12:16:05.683Z,16.55
2019-05-22T12:18:35.276Z,16.37
2019-05-22T12:21:03.593Z,16.94
2019-05-22T12:23:32.856Z,17.73
2019-05-22T12:26:01.184Z,18.41
2019-05-22T12:28:29.627Z,18.81
2019-05-22T12:30:58.658Z,19.81
2019-05-22T12:33:27.781Z,19.96
2019-05-22T12:35:56.331Z,19.76
2019-05-22T12:38:27.050Z,19.14
2019-05-22T12:40:55.574Z,18.42
2019-05-22T12:43:23.853Z,18.30
2019-05-22T12:45:52.304Z,18.45
2019-05-22T12:48:21.381Z,18.37
2019-05-22T12:50:51.008Z,17.94
2019-05-22T12:53:20.263Z,18.18
2019-05-22T12:55:48.765Z,17.76
2019-05-22T12:58:17.454Z,18.46
2019-05-22T13:00:45.514Z,19.29
2019-05-22T13:03:14.789Z,19.92
2019-05-22T13:05:44.027Z,19.69
2019-05-22T13:08:13.878Z,19.97
2019-05-22T13:10:43.363Z,19.60
2019-05-22T13:13:12.351Z,18.54
2019-05-22T13:15:41.471Z,18.21
2019-05-22T13:18:10.142Z,17.64
2019-05-22T13:20:43.015Z,18.35
2019-05-22T13:23:11.276Z,19.16
2019-05-22T13:25:41.848Z,20.81
2019-05-22T13:28:12.081Z,22.12
2019-05-22T13:30:42.388Z,22.67
2019-05-22T13:33:20.213Z,22.13
2019-05-22T13:35:49.328Z,22.47
2019-05-22T13:38:18.328Z,22.74
2019-05-22T13:40:47.941Z,22.09
2019-05-22T13:43:16.554Z,21.96
2019-05-22T13:45:44.747Z,21.52
2019-05-22T13:48:12.461Z,20.38
2019-05-22T13:50:40.683Z,20.15
2019-05-22T13:53:10.616Z,20.37
2019-05-22T13:55:39.302Z,19.63
2019-05-22T13:58:08.367Z,19.02
2019-05-22T14:00:37.536Z,18.84
2019-05-22T14:03:06.220Z,19.79
2019-05-22T14:05:36.106Z,19.72
2019-05-22T14:08:05.946Z,19.36
2019-05-22T14:10:34.505Z,19.80
2019-05-22T14:13:02.364Z,19.60
2019-05-22T14:15:47.843Z,18.76
2019-05-22T14:18:00.339Z,18.24
2019-05-22T14:20:28.075Z,17.96
2019-05-22T14:22:55.875Z,17.89
2019-05-22T14:25:24.693Z,18.16
2019-05-22T14:27:53.191Z,18.26
2019-05-22T14:30:22.682Z,18.28
2019-05-22T14:32:50.832Z,18.68
2019-05-22T14:35:19.589Z,18.64
2019-05-22T14:37:48.975Z,18.80
2019-05-22T14:40:18.185Z,19.03
2019-05-22T14:42:49.021Z,18.67
2019-05-22T14:45:16.842Z,17.97
2019-05-22T14:47:44.689Z,17.87
2019-05-22T14:50:13.339Z,18.06
2019-05-22T14:52:41.743Z,18.08
2019-05-22T14:55:12.702Z,17.83
2019-05-22T14:57:41.266Z,18.04
2019-05-22T15:00:09.243Z,19.23
2019-05-22T15:02:37.303Z,20.51
2019-05-22T15:05:05.935Z,21.25
2019-05-22T15:07:42.061Z,22.05
2019-05-22T15:10:10.780Z,23.63
2019-05-22T15:12:39.387Z,24.83
2019-05-22T15:15:08.515Z,23.87
2019-05-22T15:17:37.133Z,24.24
2019-05-22T15:20:06.032Z,25.58
2019-05-22T15:22:34.937Z,25.10
2019-05-22T15:25:04.135Z,24.80
2019-05-22T15:27:32.819Z,24.18
2019-05-22T15:30:02.585Z,23.73
2019-05-22T15:32:30.740Z,22.56
2019-05-22T15:34:58.922Z,21.71
2019-05-22T15:37:29.190Z,20.70
2019-05-22T15:39:59.753Z,20.20
2019-05-22T15:42:37.735Z,19.70
2019-05-22T15:45:08.134Z,19.34
2019-05-22T15:47:53.167Z,19.25
2019-05-22T15:50:09.335Z,20.42
2019-05-22T15:52:40.201Z,21.16
2019-05-22T15:55:11.047Z,22.21
2019-05-22T15:57:42.534Z,22.61
2019-05-22T16:00:16.498Z,23.32
2019-05-22T16:02:44.550Z,22.93
2019-05-22T16:05:13.212Z,22.94
2019-05-22T16:07:42.866Z,22.32
2019-05-22T16:10:13.141Z,22.55
2019-05-22T16:12:41.408Z,21.48
2019-05-22T16:15:12.704Z,21.09
2019-05-22T16:17:42.314Z,21.90
2019-05-22T16:20:12.005Z,21.94
2019-05-22T16:22:41.248Z,21.28
2019-05-22T16:25:10.397Z,20.91
2019-05-22T16:27:39.954Z,20.86
2019-05-22T16:30:10.644Z,20.61
2019-05-22T16:32:39.606Z,21.03
2019-05-22T16:35:08.611Z,22.03
2019-05-22T16:37:37.154Z,22.63
2019-05-22T16:40:06.252Z,22.43
2019-05-22T16:42:36.024Z,21.75
2019-05-22T16:45:05.195Z,21.43
2019-05-22T16:47:33.736Z,21.80
2019-05-22T16:50:02.915Z,21.85
2019-05-22T16:52:32.357Z,21.93
2019-05-22T16:55:00.951Z,21.29
2019-05-22T16:57:30.203Z,20.61
2019-05-22T16:59:59.399Z,19.99
2019-05-22T17:02:29.876Z,19.86
2019-05-22T17:05:01.847Z,19.29
2019-05-22T17:07:29.035Z,19.21
2019-05-22T17:09:57.374Z,19.17
2019-05-22T17:12:26.232Z,19.27
2019-05-22T17:14:55.253Z,19.20
2019-05-22T17:17:24.178Z,18.90
2019-05-22T17:19:53.070Z,18.90
2019-05-22T17:22:21.102Z,19.28
2019-05-22T17:24:49.003Z,19.65
2019-05-22T17:27:17.216Z,19.74
2019-05-22T17:29:45.319Z,19.53
2019-05-22T17:32:13.429Z,19.28
2019-05-22T17:34:41.850Z,19.46
2019-05-22T17:37:18.604Z,19.54
2019-05-22T17:39:48.982Z,19.36
2019-05-22T17:42:20.345Z,19.49
2019-05-22T17:44:50.110Z,19.20
2019-05-22T17:47:18.677Z,18.96
2019-05-22T17:49:46.326Z,19.04
2019-05-22T17:52:13.906Z,18.93
2019-05-22T17:54:42.146Z,18.93
2019-05-22T17:57:11.031Z,18.54
2019-05-22T17:59:38.406Z,18.18
2019-05-22T18:02:08.049Z,18.01
2019-05-22T18:04:35.428Z,18.27
2019-05-22T18:07:02.984Z,18.37
2019-05-22T18:09:30.251Z,18.36
2019-05-22T18:11:57.758Z,18.65
2019-05-22T18:14:25.843Z,18.62
2019-05-22T18:16:53.120Z,18.44
2019-05-22T18:19:20.812Z,18.32
2019-05-22T18:21:48.334Z,18.20
2019-05-22T18:24:15.671Z,17.88
2019-05-22T18:26:43.231Z,17.43
2019-05-22T18:29:10.447Z,17.32
2019-05-22T18:31:37.799Z,16.94
2019-05-22T18:34:05.086Z,16.73
2019-05-22T18:36:32.333Z,16.70
2019-05-22T18:39:00.611Z,16.63
2019-05-22T18:41:27.856Z,16.46
2019-05-22T18:43:55.950Z,16.47
2019-05-22T18:46:23.313Z,16.34
2019-05-22T18:48:50.561Z,16.37
2019-05-22T18:51:17.786Z,16.38
2019-05-22T18:53:45.156Z,16.46
2019-05-22T18:56:12.624Z,16.37
2019-05-22T18:58:40.194Z,16.33
2019-05-22T19:01:07.634Z,16.16
2019-05-22T19:03:34.900Z,15.93
2019-05-22T19:06:02.335Z,15.74
2019-05-22T19:08:29.688Z,15.45
2019-05-22T19:10:57.076Z,15.19
2019-05-22T19:13:24.304Z,15.03
2019-05-22T19:15:51.687Z,14.81
2019-05-22T19:18:19.245Z,14.49
2019-05-22T19:20:46.692Z,14.22
2019-05-22T19:23:13.963Z,14.03
2019-05-22T19:25:41.453Z,13.86
2019-05-22T19:28:08.712Z,13.77
2019-05-22T19:30:36.059Z,13.60
2019-05-22T19:33:03.333Z,13.52
2019-05-22T19:35:30.621Z,13.38
2019-05-22T19:37:58.749Z,13.08
2019-05-22T19:40:25.960Z,12.90
2019-05-22T19:42:54.045Z,12.71
2019-05-22T19:45:21.513Z,12.52
2019-05-22T19:47:51.231Z,12.27
2019-05-22T19:50:23.382Z,12.15
2019-05-22T19:52:48.641Z,12.05
2019-05-22T19:55:18.448Z,11.99
2019-05-22T19:57:45.796Z,11.85
2019-05-22T20:00:13.587Z,11.75
2019-05-22T20:02:41.629Z,11.58
2019-05-22T20:05:08.916Z,11.47
2019-05-22T20:07:37.803Z,11.41
2019-05-22T20:10:06.733Z,11.26
2019-05-22T20:12:35.865Z,11.18
2019-05-22T20:15:04.187Z,11.11
2019-05-22T20:17:32.731Z,10.99
2019-05-22T20:19:59.964Z,10.97
2019-05-22T20:22:28.883Z,10.86
2019-05-22T20:24:56.127Z,10.74
2019-05-22T20:27:23.719Z,10.72
2019-05-22T20:29:51.146Z,10.63
2019-05-22T20:32:18.990Z,10.53
2019-05-22T20:34:47.893Z,10.45
2019-05-22T20:37:15.606Z,10.34
2019-05-22T20:39:43.820Z,10.30
2019-05-22T20:42:11.455Z,10.34
2019-05-22T20:44:39.269Z,10.27
2019-05-22T20:47:07.238Z,10.22
2019-05-22T20:49:34.815Z,10.14
2019-05-22T20:52:02.120Z,10.12
2019-05-22T20:54:29.847Z,10.10
2019-05-22T20:56:59.036Z,10.06
2019-05-22T20:59:27.009Z,10.00
2019-05-22T21:01:54.757Z,9.99
2019-05-22T21:04:24.302Z,9.85
2019-05-22T21:06:59.842Z,9.83
2019-05-22T21:09:27.063Z,9.79
2019-05-22T21:11:55.143Z,9.76
2019-05-22T21:14:23.212Z,9.71
2019-05-22T21:16:51.731Z,9.69
2019-05-22T21:19:19.153Z,9.65
2019-05-22T21:21:47.542Z,9.69
2019-05-22T21:24:14.943Z,9.63
2019-05-22T21:26:43.311Z,9.61
2019-05-22T21:29:10.614Z,9.71
2019-05-22T21:31:37.880Z,9.65
2019-05-22T21:34:05.559Z,9.74
2019-05-22T21:36:33.194Z,9.70
2019-05-22T21:39:00.639Z,9.61
2019-05-22T21:41:27.900Z,9.57
2019-05-22T21:43:55.953Z,9.54
2019-05-22T21:46:24.180Z,9.55
2019-05-22T21:48:55.244Z,9.54
2019-05-22T21:51:25.641Z,9.48
2019-05-22T21:53:54.003Z,9.51
2019-05-22T21:56:22.460Z,9.52
2019-05-22T21:58:49.809Z,9.45
2019-05-22T22:01:28.837Z,9.47
2019-05-22T22:04:23.196Z,9.49
2019-05-22T22:06:50.631Z,9.51
2019-05-22T22:09:19.721Z,9.47
2019-05-22T22:11:47.919Z,9.54
2019-05-22T22:14:16.021Z,9.44
2019-05-22T22:16:43.406Z,9.37
2019-05-22T22:19:11.018Z,9.46
2019-05-22T22:21:39.012Z,9.48
2019-05-22T22:24:06.827Z,9.52
2019-05-22T22:26:34.648Z,9.48
2019-05-22T22:29:03.274Z,9.41
2019-05-22T22:31:32.591Z,9.41
2019-05-22T22:34:11.992Z,9.42
2019-05-22T22:36:39.438Z,9.45
2019-05-22T22:39:10.488Z,9.48
2019-05-22T22:41:40.558Z,9.51
2019-05-22T22:44:09.643Z,9.57
2019-05-22T22:46:42.180Z,9.55
2019-05-22T22:49:12.634Z,9.52
2019-05-22T22:51:40.939Z,9.52
2019-05-22T22:54:09.402Z,9.59
2019-05-22T22:56:37.092Z,9.58
2019-05-22T22:59:06.704Z,9.59
2019-05-22T23:01:36.447Z,9.51
2019-05-22T23:04:05.070Z,9.58
2019-05-22T23:06:35.922Z,9.62
2019-05-22T23:09:03.861Z,9.48
2019-05-22T23:11:32.021Z,9.48
2019-05-22T23:14:02.399Z,9.51
2019-05-22T23:16:29.849Z,9.48
2019-05-22T23:19:24.943Z,9.49
2019-05-22T23:21:52.016Z,9.50
2019-05-22T23:24:20.099Z,9.38
2019-05-22T23:26:47.391Z,9.37
2019-05-22T23:29:14.661Z,9.32
2019-05-22T23:31:42.350Z,9.35
2019-05-22T23:34:10.892Z,9.35
2019-05-22T23:36:38.534Z,9.29
2019-05-22T23:39:10.400Z,9.23
2019-05-22T23:41:39.794Z,9.17
2019-05-22T23:44:08.122Z,9.10
2019-05-22T23:46:35.364Z,9.07
2019-05-22T23:49:04.118Z,8.93
2019-05-22T23:51:31.683Z,8.87
2019-05-22T23:54:02.069Z,8.76
2019-05-22T23:56:29.960Z,8.71
2019-05-22T23:58:57.898Z,8.74
